createdAt,value
2022-11-29T00:01:41.998Z,11.40
2022-11-29T00:04:11.709Z,11.38
2022-11-29T00:06:39.895Z,11.41
2022-11-29T00:09:11.754Z,11.38
2022-11-29T00:12:00.389Z,11.42
2022-11-29T00:14:29.266Z,11.37
2022-11-29T00:17:02.049Z,11.39
2022-11-29T00:19:33.059Z,11.43
2022-11-29T00:22:02.253Z,11.37
2022-11-29T00:24:32.252Z,11.41
2022-11-29T00:27:00.714Z,11.38
2022-11-29T00:29:30.133Z,11.34
2022-11-29T00:31:58.174Z,11.25
2022-11-29T00:34:26.009Z,11.23
2022-11-29T00:36:55.095Z,11.07
2022-11-29T00:39:22.945Z,10.85
2022-11-29T00:41:50.653Z,10.73
2022-11-29T00:44:20.620Z,10.79
2022-11-29T00:46:49.160Z,10.86
2022-11-29T00:49:17.222Z,10.97
2022-11-29T00:51:45.155Z,11.02
2022-11-29T00:54:14.725Z,11.09
2022-11-29T00:56:42.890Z,11.10
2022-11-29T00:59:10.700Z,11.15
2022-11-29T01:01:38.743Z,11.22
2022-11-29T01:04:06.986Z,11.32
2022-11-29T01:06:34.742Z,11.36
2022-11-29T01:09:02.519Z,11.40
2022-11-29T01:11:31.820Z,11.38
2022-11-29T01:14:02.460Z,11.16
2022-11-29T01:16:32.457Z,11.03
2022-11-29T01:19:00.622Z,10.88
2022-11-29T01:21:28.683Z,10.76
2022-11-29T01:23:56.831Z,10.77
2022-11-29T01:26:27.578Z,10.84
2022-11-29T01:28:58.958Z,10.81
2022-11-29T01:31:29.834Z,10.72
2022-11-29T01:34:00.920Z,10.63
2022-11-29T01:36:29.666Z,10.52
2022-11-29T01:39:00.607Z,10.58
2022-11-29T01:41:32.102Z,10.68
2022-11-29T01:44:06.936Z,10.58
2022-11-29T01:46:38.441Z,10.50
2022-11-29T01:49:13.124Z,10.51
2022-11-29T01:51:47.400Z,10.66
2022-11-29T01:54:15.424Z,10.59
2022-11-29T01:56:48.560Z,10.51
2022-11-29T01:59:22.486Z,10.61
2022-11-29T02:01:51.908Z,10.34
2022-11-29T02:04:20.154Z,10.40
2022-11-29T02:06:48.428Z,10.48
2022-11-29T02:09:19.648Z,10.43
2022-11-29T02:12:07.617Z,10.34
2022-11-29T02:14:58.642Z,10.12
2022-11-29T02:17:42.816Z,10.29
2022-11-29T02:20:52.577Z,10.48
2022-11-29T02:23:51.279Z,10.35
2022-11-29T02:26:52.506Z,10.43
2022-11-29T02:29:44.738Z,10.45
2022-11-29T02:32:58.888Z,10.61
2022-11-29T02:35:51.228Z,10.70
2022-11-29T02:38:40.166Z,10.64
2022-11-29T02:41:37.231Z,10.69
2022-11-29T02:44:39.121Z,10.78
2022-11-29T02:47:23.399Z,10.96
2022-11-29T02:50:17.472Z,11.07
2022-11-29T02:52:59.406Z,11.13
2022-11-29T02:55:38.129Z,11.16
2022-11-29T02:58:19.210Z,11.05
2022-11-29T03:01:02.937Z,11.15
2022-11-29T03:03:40.803Z,11.23
2022-11-29T03:06:23.761Z,11.25
2022-11-29T03:09:06.086Z,11.22
2022-11-29T03:11:43.512Z,11.17
2022-11-29T03:14:23.314Z,11.22
2022-11-29T03:17:07.268Z,11.33
2022-11-29T03:20:06.157Z,11.36
2022-11-29T03:22:46.900Z,11.15
2022-11-29T03:25:26.653Z,11.05
2022-11-29T03:28:04.801Z,11.04
2022-11-29T03:30:40.060Z,11.14
2022-11-29T03:33:15.971Z,11.13
2022-11-29T03:35:53.258Z,11.19
2022-11-29T03:38:32.871Z,11.24
2022-11-29T03:41:14.061Z,11.36
2022-11-29T03:43:50.248Z,11.21
2022-11-29T03:46:31.855Z,11.13
2022-11-29T03:49:07.443Z,11.15
2022-11-29T03:51:51.786Z,11.33
2022-11-29T03:54:28.597Z,11.37
2022-11-29T03:56:58.048Z,11.24
2022-11-29T03:59:52.055Z,11.38
2022-11-29T04:03:26.373Z,11.49
2022-11-29T04:06:20.507Z,11.42
2022-11-29T04:09:41.849Z,11.11
2022-11-29T04:13:00.796Z,11.03
2022-11-29T04:16:31.658Z,11.09
2022-11-29T04:19:32.346Z,11.24
2022-11-29T04:22:27.618Z,11.26
2022-11-29T04:25:39.714Z,11.26
2022-11-29T04:29:01.451Z,11.24
2022-11-29T04:31:54.043Z,11.21
2022-11-29T04:34:52.459Z,11.17
2022-11-29T04:37:54.206Z,11.10
2022-11-29T04:40:54.011Z,11.03
2022-11-29T04:43:48.529Z,11.07
2022-11-29T04:46:59.782Z,11.13
2022-11-29T04:50:05.518Z,11.01
2022-11-29T04:53:04.330Z,10.93
2022-11-29T04:55:45.536Z,11.03
2022-11-29T04:58:27.010Z,11.08
2022-11-29T05:01:06.861Z,11.13
2022-11-29T05:03:41.311Z,11.10
2022-11-29T05:06:23.338Z,10.92
2022-11-29T05:09:03.037Z,11.07
2022-11-29T05:11:50.033Z,10.99
2022-11-29T05:14:35.800Z,11.02
2022-11-29T05:17:31.905Z,11.07
2022-11-29T05:20:18.035Z,11.12
2022-11-29T05:22:58.170Z,11.18
2022-11-29T05:25:43.328Z,11.08
2022-11-29T05:28:23.997Z,11.05
2022-11-29T05:31:21.352Z,10.91
2022-11-29T05:34:20.336Z,10.83
2022-11-29T05:37:02.099Z,10.79
2022-11-29T05:39:43.215Z,10.91
2022-11-29T05:42:42.432Z,11.03
2022-11-29T05:45:23.302Z,10.97
2022-11-29T05:48:01.998Z,10.98
2022-11-29T05:50:40.048Z,11.04
2022-11-29T05:53:21.346Z,11.10
2022-11-29T05:56:03.080Z,11.21
2022-11-29T05:58:49.989Z,11.08
2022-11-29T06:01:24.646Z,11.09
2022-11-29T06:04:01.862Z,11.09
2022-11-29T06:06:40.261Z,11.22
2022-11-29T06:09:18.859Z,11.34
2022-11-29T06:11:52.773Z,11.45
2022-11-29T06:14:51.541Z,11.45
2022-11-29T06:17:41.824Z,11.45
2022-11-29T06:20:36.049Z,11.43
2022-11-29T06:23:24.669Z,11.40
2022-11-29T06:26:12.947Z,11.41
2022-11-29T06:29:01.591Z,11.37
2022-11-29T06:31:38.296Z,11.31
2022-11-29T06:34:33.933Z,11.22
2022-11-29T06:37:16.494Z,11.22
2022-11-29T06:39:47.314Z,11.07
2022-11-29T06:42:15.097Z,10.99
2022-11-29T06:44:44.083Z,10.88
2022-11-29T06:47:23.612Z,10.86
2022-11-29T06:50:03.135Z,10.94
2022-11-29T06:52:46.142Z,11.09
2022-11-29T06:55:25.192Z,11.06
2022-11-29T06:58:10.266Z,11.09
2022-11-29T07:00:55.575Z,11.10
2022-11-29T07:03:43.254Z,11.18
2022-11-29T07:06:20.971Z,11.18
2022-11-29T07:08:53.856Z,11.20
2022-11-29T07:11:22.586Z,11.06
2022-11-29T07:13:51.058Z,11.17
2022-11-29T07:16:28.959Z,11.19
2022-11-29T07:19:13.138Z,11.18
2022-11-29T07:21:55.209Z,11.20
2022-11-29T07:24:44.677Z,11.30
2022-11-29T07:27:21.047Z,11.37
2022-11-29T07:30:10.008Z,11.37
2022-11-29T07:33:00.033Z,11.07
2022-11-29T07:35:38.539Z,10.98
2022-11-29T07:38:18.360Z,11.07
2022-11-29T07:40:59.141Z,11.10
2022-11-29T07:43:47.682Z,11.08
2022-11-29T07:46:15.462Z,10.89
2022-11-29T07:48:43.207Z,10.88
2022-11-29T07:51:11.176Z,10.90
2022-11-29T07:53:43.940Z,10.99
2022-11-29T07:56:12.503Z,11.00
2022-11-29T07:58:40.196Z,10.84
2022-11-29T08:01:08.652Z,10.91
2022-11-29T08:03:36.472Z,10.82
2022-11-29T08:06:04.207Z,10.86
2022-11-29T08:08:32.017Z,10.90
2022-11-29T08:11:01.038Z,10.99
2022-11-29T08:13:28.783Z,10.90
2022-11-29T08:15:56.539Z,10.86
2022-11-29T08:18:24.361Z,10.85
2022-11-29T08:20:52.069Z,10.89
2022-11-29T08:23:19.862Z,10.77
2022-11-29T08:25:48.441Z,10.77
2022-11-29T08:28:17.543Z,10.63
2022-11-29T08:30:45.245Z,10.73
2022-11-29T08:33:13.052Z,10.83
2022-11-29T08:35:42.095Z,10.81
2022-11-29T08:38:09.887Z,10.68
2022-11-29T08:40:37.689Z,10.57
2022-11-29T08:43:05.413Z,10.55
2022-11-29T08:45:34.525Z,10.64
2022-11-29T08:48:02.314Z,10.64
2022-11-29T08:50:30.110Z,10.60
2022-11-29T08:53:17.344Z,10.64
2022-11-29T08:55:46.502Z,10.51
2022-11-29T08:58:15.969Z,10.40
2022-11-29T09:00:46.993Z,10.46
2022-11-29T09:03:33.263Z,10.46
2022-11-29T09:06:10.458Z,10.49
2022-11-29T09:08:43.449Z,10.42
2022-11-29T09:11:14.433Z,10.40
2022-11-29T09:13:44.823Z,10.36
2022-11-29T09:16:18.164Z,10.44
2022-11-29T09:18:51.962Z,10.35
2022-11-29T09:21:20.053Z,10.38
2022-11-29T09:23:47.807Z,10.41
2022-11-29T09:26:18.826Z,10.35
2022-11-29T09:28:46.776Z,10.31
2022-11-29T09:31:16.986Z,10.21
2022-11-29T09:33:45.553Z,10.44
2022-11-29T09:36:13.904Z,10.24
2022-11-29T09:38:42.030Z,10.29
2022-11-29T09:41:38.734Z,10.33
2022-11-29T09:44:22.182Z,10.42
2022-11-29T09:47:04.122Z,10.47
2022-11-29T09:49:55.146Z,10.62
2022-11-29T09:52:40.736Z,10.41
2022-11-29T09:55:35.324Z,10.34
2022-11-29T09:58:09.483Z,10.39
2022-11-29T10:00:48.570Z,10.45
2022-11-29T10:03:27.443Z,10.37
2022-11-29T10:06:01.661Z,10.43
2022-11-29T10:08:36.731Z,10.55
2022-11-29T10:11:20.929Z,10.63
2022-11-29T10:13:57.197Z,10.46
2022-11-29T10:16:39.456Z,10.40
2022-11-29T10:19:20.114Z,10.22
2022-11-29T10:22:02.720Z,10.16
2022-11-29T10:24:33.379Z,10.08
2022-11-29T10:27:01.656Z,10.18
2022-11-29T10:29:29.415Z,10.12
2022-11-29T10:31:59.247Z,10.15
2022-11-29T10:34:31.299Z,10.32
2022-11-29T10:37:02.266Z,10.31
2022-11-29T10:39:37.161Z,10.15
2022-11-29T10:42:32.937Z,10.12
2022-11-29T10:45:02.891Z,10.07
2022-11-29T10:47:32.141Z,9.89
2022-11-29T10:50:01.322Z,9.96
2022-11-29T10:52:29.045Z,10.14
2022-11-29T10:55:00.045Z,10.12
2022-11-29T10:57:27.924Z,10.13
2022-11-29T11:00:01.894Z,10.30
2022-11-29T11:02:31.102Z,10.47
2022-11-29T11:05:01.478Z,10.56
2022-11-29T11:07:35.509Z,10.48
2022-11-29T11:10:26.763Z,10.50
2022-11-29T11:13:03.352Z,10.49
2022-11-29T11:15:32.722Z,10.58
2022-11-29T11:18:04.734Z,10.54
2022-11-29T11:20:39.616Z,10.43
2022-11-29T11:23:27.488Z,10.19
2022-11-29T11:26:02.925Z,10.23
2022-11-29T11:28:36.560Z,10.14
2022-11-29T11:31:09.274Z,10.28
2022-11-29T11:33:40.154Z,10.25
2022-11-29T11:36:14.495Z,10.36
2022-11-29T11:38:51.318Z,10.39
2022-11-29T11:41:45.490Z,10.47
2022-11-29T11:44:47.958Z,10.38
2022-11-29T11:47:21.593Z,10.46
2022-11-29T11:50:04.169Z,10.43
2022-11-29T11:52:42.808Z,10.46
2022-11-29T11:55:33.192Z,10.42
2022-11-29T11:58:10.252Z,10.41
2022-11-29T12:01:03.832Z,10.54
2022-11-29T12:03:45.675Z,10.68
2022-11-29T12:06:39.410Z,10.57
2022-11-29T12:09:22.788Z,10.70
2022-11-29T12:12:04.255Z,10.63
2022-11-29T12:14:51.999Z,10.75
2022-11-29T12:17:34.919Z,10.51
2022-11-29T12:20:18.924Z,10.61
2022-11-29T12:23:05.545Z,10.58
2022-11-29T12:25:44.654Z,10.71
2022-11-29T12:28:20.079Z,10.54
2022-11-29T12:31:03.307Z,10.45
2022-11-29T12:33:46.193Z,10.52
2022-11-29T12:36:32.493Z,10.52
2022-11-29T12:39:19.836Z,10.44
2022-11-29T12:41:57.429Z,10.50
2022-11-29T12:44:46.015Z,10.47
2022-11-29T12:47:37.408Z,10.37
2022-11-29T12:50:29.473Z,10.52
2022-11-29T12:53:21.329Z,10.72
2022-11-29T12:56:13.597Z,10.63
2022-11-29T12:58:59.096Z,10.68
2022-11-29T13:01:41.632Z,10.81
2022-11-29T13:04:25.504Z,10.63
2022-11-29T13:07:04.790Z,10.71
2022-11-29T13:10:20.078Z,10.76
2022-11-29T13:12:53.835Z,10.86
2022-11-29T13:15:31.676Z,10.67
2022-11-29T13:18:11.035Z,10.89
2022-11-29T13:20:48.294Z,10.90
2022-11-29T13:23:46.081Z,10.88
2022-11-29T13:26:17.006Z,10.91
2022-11-29T13:28:48.290Z,10.95
2022-11-29T13:31:20.580Z,10.80
2022-11-29T13:34:01.249Z,10.87
2022-11-29T13:36:44.499Z,10.92
2022-11-29T13:39:30.609Z,10.95
2022-11-29T13:42:07.980Z,10.89
2022-11-29T13:44:47.168Z,10.76
2022-11-29T13:47:19.321Z,10.85
2022-11-29T13:49:58.917Z,10.85
2022-11-29T13:52:38.747Z,11.05
2022-11-29T13:55:22.946Z,10.80
2022-11-29T13:58:15.452Z,10.79
2022-11-29T14:00:51.637Z,10.84
2022-11-29T14:03:30.884Z,10.68
2022-11-29T14:06:20.997Z,10.81
2022-11-29T14:09:25.277Z,10.72
2022-11-29T14:12:04.484Z,10.72
2022-11-29T14:14:48.173Z,10.50
2022-11-29T14:17:45.193Z,10.53
2022-11-29T14:20:55.754Z,10.79
2022-11-29T14:23:40.607Z,10.61
2022-11-29T14:26:29.893Z,10.56
2022-11-29T14:29:01.419Z,10.51
2022-11-29T14:31:54.968Z,10.66
2022-11-29T14:34:41.716Z,10.52
2022-11-29T14:37:34.699Z,10.55
2022-11-29T14:40:20.683Z,10.47
2022-11-29T14:42:50.265Z,10.52
2022-11-29T14:45:26.192Z,10.45
2022-11-29T14:47:54.260Z,10.43
2022-11-29T14:50:34.647Z,10.60
2022-11-29T14:53:05.534Z,10.65
2022-11-29T14:55:37.528Z,10.82
2022-11-29T14:58:18.806Z,10.88
2022-11-29T15:01:09.631Z,10.94
2022-11-29T15:03:48.969Z,10.73
2022-11-29T15:06:26.414Z,10.70
2022-11-29T15:09:04.231Z,10.75
2022-11-29T15:11:46.901Z,10.76
2022-11-29T15:14:26.640Z,10.59
2022-11-29T15:17:16.815Z,10.59
2022-11-29T15:20:06.497Z,10.61
2022-11-29T15:22:49.266Z,10.68
2022-11-29T15:25:22.088Z,10.69
2022-11-29T15:27:52.434Z,10.67
2022-11-29T15:30:29.395Z,10.52
2022-11-29T15:32:59.800Z,10.55
2022-11-29T15:35:28.272Z,10.59
2022-11-29T15:37:57.268Z,10.61
2022-11-29T15:40:35.105Z,10.73
2022-11-29T15:43:25.690Z,10.79
2022-11-29T15:45:56.803Z,10.73
2022-11-29T15:48:27.254Z,10.69
2022-11-29T15:51:04.767Z,10.55
2022-11-29T15:53:40.694Z,10.48
2022-11-29T15:56:17.599Z,10.66
2022-11-29T15:58:48.987Z,10.63
2022-11-29T16:01:21.485Z,10.62
2022-11-29T16:03:55.580Z,10.49
2022-11-29T16:06:29.911Z,10.33
2022-11-29T16:08:58.979Z,10.36
2022-11-29T16:11:31.782Z,10.35
2022-11-29T16:14:18.390Z,10.22
2022-11-29T16:16:52.361Z,10.20
2022-11-29T16:19:30.139Z,10.36
2022-11-29T16:22:02.060Z,10.23
2022-11-29T16:24:33.985Z,10.38
2022-11-29T16:27:05.175Z,10.37
2022-11-29T16:29:36.985Z,10.37
2022-11-29T16:32:26.919Z,10.22
2022-11-29T16:35:06.113Z,10.28
2022-11-29T16:37:41.128Z,10.22
2022-11-29T16:40:22.751Z,10.35
2022-11-29T16:43:18.374Z,10.44
2022-11-29T16:45:46.855Z,10.61
2022-11-29T16:48:31.068Z,10.51
2022-11-29T16:51:23.601Z,10.56
2022-11-29T16:53:53.532Z,10.50
2022-11-29T16:56:24.710Z,10.63
2022-11-29T16:59:25.366Z,10.68
2022-11-29T17:01:45.502Z,10.48
2022-11-29T17:04:13.387Z,10.77
2022-11-29T17:06:53.519Z,10.67
2022-11-29T17:12:53.965Z,10.59
2022-11-29T17:15:23.248Z,10.50
2022-11-29T17:17:50.926Z,10.52
2022-11-29T17:20:18.701Z,10.58
2022-11-29T17:22:46.756Z,10.57
2022-11-29T17:25:14.514Z,10.66
2022-11-29T17:27:42.274Z,10.69
2022-11-29T17:30:11.482Z,10.63
2022-11-29T17:32:40.646Z,10.64
2022-11-29T17:35:09.269Z,10.70
2022-11-29T17:37:37.149Z,10.75
2022-11-29T17:40:06.527Z,10.73
2022-11-29T17:42:38.036Z,10.77
2022-11-29T17:45:07.437Z,10.69
2022-11-29T17:47:35.185Z,10.57
2022-11-29T17:50:05.874Z,10.57
2022-11-29T17:52:33.689Z,10.68
2022-11-29T17:55:01.540Z,10.68
2022-11-29T17:57:29.257Z,10.73
2022-11-29T17:59:57.054Z,10.75
2022-11-29T18:02:24.824Z,10.51
2022-11-29T18:04:52.655Z,10.61
2022-11-29T18:07:21.753Z,10.61
2022-11-29T18:09:49.670Z,10.62
2022-11-29T18:12:17.550Z,10.61
2022-11-29T18:14:45.314Z,10.68
2022-11-29T18:17:13.072Z,10.76
2022-11-29T18:19:40.828Z,10.63
2022-11-29T18:22:08.795Z,10.58
2022-11-29T18:24:37.904Z,10.58
2022-11-29T18:27:05.621Z,10.59
2022-11-29T18:29:45.585Z,10.74
2022-11-29T18:32:13.474Z,10.80
2022-11-29T18:34:41.217Z,10.87
2022-11-29T18:37:15.330Z,10.92
2022-11-29T18:39:48.010Z,11.05
2022-11-29T18:42:15.936Z,11.10
2022-11-29T18:44:44.005Z,11.01
2022-11-29T18:47:12.098Z,10.92
2022-11-29T18:49:39.797Z,10.89
2022-11-29T18:52:07.884Z,10.81
2022-11-29T18:54:35.692Z,10.91
2022-11-29T18:57:04.866Z,10.92
2022-11-29T18:59:32.671Z,10.94
2022-11-29T19:02:00.493Z,10.81
2022-11-29T19:04:28.299Z,10.82
2022-11-29T19:06:57.689Z,10.85
2022-11-29T19:09:25.775Z,10.94
2022-11-29T19:11:53.801Z,11.00
2022-11-29T19:14:22.943Z,10.98
2022-11-29T19:16:51.130Z,11.01
2022-11-29T19:19:19.263Z,11.08
2022-11-29T19:21:47.916Z,11.02
2022-11-29T19:24:18.182Z,11.07
2022-11-29T19:26:49.547Z,10.97
2022-11-29T19:29:17.497Z,11.13
2022-11-29T19:31:46.659Z,11.09
2022-11-29T19:34:14.530Z,11.08
2022-11-29T19:36:43.399Z,10.99
2022-11-29T19:39:15.265Z,10.72
2022-11-29T19:41:46.031Z,10.78
2022-11-29T19:44:14.371Z,10.87
2022-11-29T19:46:46.979Z,10.88
2022-11-29T19:49:15.656Z,11.00
2022-11-29T19:51:43.598Z,11.06
2022-11-29T19:54:12.695Z,10.88
2022-11-29T19:56:40.579Z,10.99
2022-11-29T19:59:08.738Z,10.87
2022-11-29T20:01:41.507Z,10.84
2022-11-29T20:04:13.897Z,10.89
2022-11-29T20:06:43.079Z,10.96
2022-11-29T20:09:13.683Z,11.00
2022-11-29T20:11:41.556Z,10.85
2022-11-29T20:14:12.387Z,10.98
2022-11-29T20:16:41.223Z,10.95
2022-11-29T20:19:13.170Z,10.80
2022-11-29T20:21:44.019Z,10.85
2022-11-29T20:24:14.290Z,10.92
2022-11-29T20:26:46.555Z,11.03
2022-11-29T20:29:16.017Z,11.04
2022-11-29T20:31:50.295Z,11.05
2022-11-29T20:34:20.956Z,11.15
2022-11-29T20:37:23.306Z,11.10
2022-11-29T20:39:59.709Z,11.10
2022-11-29T20:42:50.125Z,11.13
2022-11-29T20:45:18.803Z,11.09
2022-11-29T20:47:53.205Z,11.09
2022-11-29T20:50:26.709Z,11.01
2022-11-29T20:53:15.008Z,11.11
2022-11-29T20:55:47.985Z,11.14
2022-11-29T20:58:18.258Z,11.12
2022-11-29T21:00:46.590Z,11.05
2022-11-29T21:03:15.435Z,11.10
2022-11-29T21:05:45.326Z,11.09
2022-11-29T21:08:14.509Z,11.00
2022-11-29T21:10:42.528Z,10.86
2022-11-29T21:13:13.405Z,10.70
2022-11-29T21:15:42.341Z,10.62
2022-11-29T21:18:21.247Z,10.44
2022-11-29T21:21:03.485Z,10.50
2022-11-29T21:23:46.345Z,10.37
2022-11-29T21:26:20.457Z,10.24
2022-11-29T21:28:59.662Z,10.20
2022-11-29T21:31:28.377Z,10.36
2022-11-29T21:33:56.738Z,10.37
2022-11-29T21:36:25.864Z,10.15
2022-11-29T21:38:55.209Z,10.14
2022-11-29T21:41:23.464Z,10.14
2022-11-29T21:44:06.219Z,10.07
2022-11-29T21:46:36.097Z,9.80
2022-11-29T21:49:04.662Z,9.89
2022-11-29T21:51:33.914Z,9.78
2022-11-29T21:54:02.442Z,9.78
2022-11-29T21:56:30.407Z,9.70
2022-11-29T21:58:58.244Z,9.62
2022-11-29T22:01:27.561Z,9.72
2022-11-29T22:04:08.712Z,9.59
2022-11-29T22:06:41.520Z,9.69
2022-11-29T22:09:09.683Z,9.46
2022-11-29T22:11:37.408Z,9.49
2022-11-29T22:14:15.232Z,9.45
2022-11-29T22:16:46.001Z,9.39
2022-11-29T22:19:16.452Z,9.32
2022-11-29T22:21:48.692Z,9.31
2022-11-29T22:24:20.677Z,9.38
2022-11-29T22:26:49.973Z,9.44
2022-11-29T22:29:19.217Z,9.51
2022-11-29T22:31:49.762Z,9.47
2022-11-29T22:34:17.638Z,9.34
2022-11-29T22:36:46.854Z,9.33
2022-11-29T22:39:14.913Z,9.30
2022-11-29T22:48:38.936Z,9.14
2022-11-29T22:51:09.806Z,9.23
2022-11-29T22:53:42.205Z,9.25
2022-11-29T22:56:11.810Z,9.35
2022-11-29T22:58:39.601Z,9.28
2022-11-29T23:01:10.258Z,9.21
2022-11-29T23:03:40.505Z,8.98
2022-11-29T23:06:11.537Z,9.07
2022-11-29T23:08:42.712Z,8.97
2022-11-29T23:11:13.388Z,8.97
2022-11-29T23:13:42.979Z,8.88
2022-11-29T23:16:13.853Z,8.89
2022-11-29T23:18:42.508Z,8.89
2022-11-29T23:21:14.375Z,8.82
2022-11-29T23:23:44.209Z,8.81
2022-11-29T23:26:19.711Z,8.81
2022-11-29T23:28:48.938Z,8.62
2022-11-29T23:31:17.428Z,8.74
2022-11-29T23:33:45.425Z,8.58
2022-11-29T23:36:15.231Z,8.64
2022-11-29T23:38:44.874Z,8.58
2022-11-29T23:41:13.003Z,8.69
2022-11-29T23:43:42.014Z,8.67
2022-11-29T23:46:14.656Z,8.50
2022-11-29T23:49:14.464Z,8.41
2022-11-29T23:58:29.266Z,8.52
